Allentown, Illinois
Current Conditions -  °F | °C
As of 9:54 AM on Sunday 23 Nov 2014 (Local Time) from KPIA Reporting Station
Scattered Clouds Scattered Clouds  
Wind Chill: 53°   Ceiling: Unl
Heat Index: 53°   Visibility: 10mi
Dew Point: 46°   Wind: 14mph
Humidity: 77%   Direction: 170°S
Pressure: 29.65"   Gusts: NA
Location:  40.4817°N, 89.4923°W
Report Text: KPIA 231554Z 17012KT 10SM FEW014 SCT120 12/08 A2965 RMK AO2 SLP041 T01170078
Loading
Personal Weather Stations






























Interactive Weather Map New forecast layout! Learn more

10-Day Weather Forecast

Advertisements
Track Severe Weather on mobile